Time;durP1;ratioP1;P1;durP2;ratioP2;P2;SDS_P1;SDS_P2;PMS_P1;PMS_P2;Temp;Humidity;BMP_temperature;BMP_pressure;BME280_temperature;BME280_humidity;BME280_pressure;Samples;Min_cycle;Max_cycle;Signal;HPM_P1;HPM_P2
2024/02/03 00:00:58;;;;;;;58.70;53.00;;;;;;;;;;5095387;28;20908;-78
2024/02/03 00:03:25;;;;;;;65.13;57.10;;;;;;;;;;5095555;28;20441;-78
2024/02/03 00:05:52;;;;;;;67.77;57.23;;;;;;;;;;5095340;28;20944;-79
2024/02/03 00:08:19;;;;;;;69.10;57.23;;;;;;;;;;5095651;28;20731;-78
2024/02/03 00:10:46;;;;;;;83.77;62.93;;;;;;;;;;5113645;28;20460;-79
2024/02/03 00:13:15;;;;;;;62.97;56.00;;;;;;;;;;5095256;28;20499;-78
2024/02/03 00:15:42;;;;;;;77.27;67.43;;;;;;;;;;5094989;28;20444;-78
2024/02/03 00:18:09;;;;;;;71.73;61.87;;;;;;;;;;5094695;28;20498;-79
2024/02/03 00:20:37;;;;;;;59.77;54.07;;;;;;;;;;5110458;28;20513;-80
2024/02/03 00:23:04;;;;;;;59.37;53.13;;;;;;;;;;5094693;28;20469;-79
2024/02/03 00:25:31;;;;;;;90.77;71.13;;;;;;;;;;5095561;28;20412;-79
2024/02/03 00:28:00;;;;;;;58.73;52.67;;;;;;;;;;5114385;28;20451;-79
2024/02/03 00:30:29;;;;;;;77.33;63.40;;;;;;;;;;5114381;28;20521;-79
2024/02/03 00:32:56;;;;;;;66.50;58.77;;;;;;;;;;5115198;28;21100;-78
2024/02/03 00:35:24;;;;;;;59.43;52.97;;;;;;;;;;5107186;28;20565;-78
2024/02/03 00:37:51;;;;;;;91.27;69.43;;;;;;;;;;5093962;28;20445;-79
2024/02/03 00:40:18;;;;;;;70.77;60.57;;;;;;;;;;5103599;28;20538;-78
2024/02/03 00:42:45;;;;;;;65.53;58.63;;;;;;;;;;5114604;28;20436;-78
2024/02/03 00:45:13;;;;;;;83.77;66.63;;;;;;;;;;5114019;28;20447;-79
2024/02/03 00:47:41;;;;;;;59.03;53.07;;;;;;;;;;5113971;28;20488;-78
2024/02/03 00:50:14;;;;;;;89.97;71.47;;;;;;;;;;5114697;28;20471;-79
2024/02/03 00:52:41;;;;;;;64.27;57.50;;;;;;;;;;5114665;28;20464;-78
2024/02/03 00:55:09;;;;;;;72.23;61.13;;;;;;;;;;5118566;28;20448;-79
2024/02/03 00:57:36;;;;;;;67.33;59.80;;;;;;;;;;5118150;28;20500;-79
2024/02/03 01:00:03;;;;;;;55.00;49.43;;;;;;;;;;5117563;28;21064;-79
2024/02/03 01:02:30;;;;;;;59.10;52.83;;;;;;;;;;5116814;28;20931;-79
2024/02/03 01:04:59;;;;;;;58.47;52.37;;;;;;;;;;5106465;28;20509;-78
2024/02/03 01:07:26;;;;;;;65.97;57.80;;;;;;;;;;5097745;28;20475;-78
2024/02/03 01:12:36;;;;;;;61.57;54.70;;;;;;;;;;5098368;28;20447;-79
2024/02/03 01:15:03;;;;;;;50.30;45.90;;;;;;;;;;5097882;28;20486;-79
2024/02/03 01:17:30;;;;;;;55.73;51.33;;;;;;;;;;5099327;28;20477;-79
2024/02/03 01:19:59;;;;;;;48.73;44.53;;;;;;;;;;5097785;28;20964;-79
2024/02/03 01:22:27;;;;;;;65.07;57.73;;;;;;;;;;5098173;28;20423;-79
2024/02/03 01:24:54;;;;;;;63.03;56.53;;;;;;;;;;5097264;28;20481;-78
2024/02/03 01:27:21;;;;;;;55.20;49.70;;;;;;;;;;5099510;28;20438;-78
2024/02/03 01:29:48;;;;;;;48.33;44.33;;;;;;;;;;5097553;28;20443;-78
2024/02/03 01:32:16;;;;;;;67.90;60.43;;;;;;;;;;5098101;28;20456;-78
2024/02/03 01:34:43;;;;;;;52.77;47.57;;;;;;;;;;5096566;28;20449;-79
2024/02/03 01:37:12;;;;;;;57.73;51.97;;;;;;;;;;5095653;28;20469;-77
2024/02/03 01:39:39;;;;;;;50.40;45.77;;;;;;;;;;5095730;28;20469;-78
2024/02/03 01:42:06;;;;;;;60.83;54.80;;;;;;;;;;5096143;28;20453;-78
2024/02/03 01:44:35;;;;;;;64.43;57.27;;;;;;;;;;5096358;28;20452;-78
2024/02/03 01:47:02;;;;;;;53.50;48.40;;;;;;;;;;5095943;28;20570;-78
2024/02/03 01:49:29;;;;;;;54.47;49.00;;;;;;;;;;5096449;28;20468;-78
2024/02/03 01:51:58;;;;;;;53.57;48.67;;;;;;;;;;5095578;28;20551;-79
2024/02/03 01:54:26;;;;;;;62.30;55.73;;;;;;;;;;5096185;28;20476;-78
2024/02/03 01:56:56;;;;;;;54.87;49.30;;;;;;;;;;5094715;28;20441;-78
2024/02/03 01:59:24;;;;;;;68.77;57.73;;;;;;;;;;5095652;28;20453;-78
2024/02/03 02:01:53;;;;;;;51.87;47.07;;;;;;;;;;5095757;28;20459;-78
2024/02/03 02:04:20;;;;;;;60.10;53.80;;;;;;;;;;5095959;28;20514;-78
2024/02/03 02:06:47;;;;;;;64.97;57.87;;;;;;;;;;5093843;28;20506;-79
2024/02/03 02:09:19;;;;;;;61.80;55.13;;;;;;;;;;5094391;28;20994;-78
2024/02/03 02:11:48;;;;;;;58.30;52.60;;;;;;;;;;5095457;28;20474;-77
2024/02/03 02:14:16;;;;;;;61.27;54.70;;;;;;;;;;5094920;28;20526;-78
2024/02/03 02:16:43;;;;;;;63.87;57.20;;;;;;;;;;5095107;28;20452;-78
2024/02/03 02:19:10;;;;;;;62.23;55.43;;;;;;;;;;5094562;28;20469;-79
2024/02/03 02:21:39;;;;;;;53.77;48.43;;;;;;;;;;5094823;28;20447;-79
2024/02/03 02:24:07;;;;;;;58.87;52.20;;;;;;;;;;5103180;28;20440;-79
2024/02/03 02:26:34;;;;;;;54.40;48.90;;;;;;;;;;5114582;28;20437;-79
2024/02/03 02:29:01;;;;;;;59.97;53.97;;;;;;;;;;5115111;28;20467;-78
2024/02/03 02:31:28;;;;;;;55.57;49.43;;;;;;;;;;5114921;28;20467;-78
2024/02/03 02:33:54;;;;;;;65.07;57.73;;;;;;;;;;5114624;28;20552;-79
2024/02/03 02:36:22;;;;;;;55.03;50.03;;;;;;;;;;5113908;28;20435;-78
2024/02/03 02:38:50;;;;;;;58.50;52.53;;;;;;;;;;5114573;28;20472;-79
2024/02/03 02:41:17;;;;;;;58.83;52.60;;;;;;;;;;5114109;28;20909;-78
2024/02/03 02:43:44;;;;;;;65.33;58.53;;;;;;;;;;5114362;28;20954;-79
2024/02/03 02:46:12;;;;;;;45.77;41.43;;;;;;;;;;5114064;28;20781;-77
2024/02/03 02:48:39;;;;;;;48.33;44.10;;;;;;;;;;5113888;28;20449;-78
2024/02/03 02:51:06;;;;;;;64.10;57.13;;;;;;;;;;5114704;28;20458;-78
2024/02/03 02:53:34;;;;;;;63.77;56.93;;;;;;;;;;5113332;28;20488;-78
2024/02/03 02:56:03;;;;;;;55.77;49.83;;;;;;;;;;5113932;28;20510;-78
2024/02/03 02:58:30;;;;;;;44.13;40.43;;;;;;;;;;5113955;28;20911;-79
2024/02/03 03:00:58;;;;;;;47.07;43.00;;;;;;;;;;5114315;28;20861;-78
2024/02/03 03:03:28;;;;;;;69.47;60.73;;;;;;;;;;5114450;28;20443;-79
2024/02/03 03:05:57;;;;;;;69.30;59.20;;;;;;;;;;5114521;28;20458;-79
2024/02/03 03:08:25;;;;;;;49.30;44.97;;;;;;;;;;5114495;28;20440;-79
2024/02/03 03:10:52;;;;;;;69.40;57.30;;;;;;;;;;5099149;28;20448;-79
2024/02/03 03:13:21;;;;;;;60.83;54.40;;;;;;;;;;5094395;28;20481;-79
2024/02/03 03:15:48;;;;;;;61.50;55.27;;;;;;;;;;5094245;28;20448;-78
2024/02/03 03:18:15;;;;;;;62.77;56.10;;;;;;;;;;5093527;28;20452;-79
2024/02/03 03:20:43;;;;;;;46.00;41.97;;;;;;;;;;5093660;28;20476;-78
2024/02/03 03:23:10;;;;;;;62.60;55.73;;;;;;;;;;5094559;28;20469;-78
2024/02/03 03:25:37;;;;;;;63.47;56.30;;;;;;;;;;5094642;28;20431;-79
2024/02/03 03:28:05;;;;;;;55.00;49.00;;;;;;;;;;5100781;28;20463;-79
2024/02/03 03:30:34;;;;;;;55.77;47.87;;;;;;;;;;5114913;28;20509;-78
2024/02/03 03:33:01;;;;;;;54.30;48.83;;;;;;;;;;5115106;28;20480;-79
2024/02/03 03:35:28;;;;;;;54.23;48.77;;;;;;;;;;5114582;28;21211;-79
2024/02/03 03:37:57;;;;;;;50.43;45.97;;;;;;;;;;5113816;28;20463;-79
2024/02/03 03:40:24;;;;;;;60.97;54.33;;;;;;;;;;5100371;28;20503;-80
2024/02/03 03:42:51;;;;;;;47.13;43.23;;;;;;;;;;5117527;28;20868;-80
2024/02/03 03:45:18;;;;;;;52.33;47.13;;;;;;;;;;5122455;28;20436;-80
2024/02/03 03:47:49;;;;;;;65.70;54.87;;;;;;;;;;5121744;28;20493;-81
2024/02/03 03:50:16;;;;;;;50.03;45.27;;;;;;;;;;5122760;28;20468;-81
2024/02/03 03:52:43;;;;;;;58.97;53.27;;;;;;;;;;5112345;28;20469;-81
2024/02/03 03:55:10;;;;;;;56.70;50.90;;;;;;;;;;5107973;28;20882;-80
2024/02/03 03:57:38;;;;;;;48.57;44.20;;;;;;;;;;5106906;28;20452;-80
2024/02/03 04:00:07;;;;;;;53.90;48.50;;;;;;;;;;5108756;28;20474;-81
2024/02/03 04:02:34;;;;;;;57.97;52.40;;;;;;;;;;5122903;28;20450;-80
2024/02/03 04:05:02;;;;;;;68.60;63.10;;;;;;;;;;5121705;28;20843;-80
2024/02/03 04:07:29;;;;;;;63.83;59.03;;;;;;;;;;5121709;28;20765;-80
2024/02/03 04:09:56;;;;;;;66.47;60.50;;;;;;;;;;5121977;28;20446;-81
2024/02/03 04:12:24;;;;;;;71.60;64.50;;;;;;;;;;5122717;28;20456;-81
2024/02/03 04:14:51;;;;;;;76.23;69.57;;;;;;;;;;5121830;28;20549;-80
2024/02/03 04:17:22;;;;;;;70.83;64.73;;;;;;;;;;5121856;28;20455;-81
2024/02/03 04:19:49;;;;;;;77.30;70.57;;;;;;;;;;5123799;28;20549;-81
2024/02/03 04:22:17;;;;;;;67.00;61.40;;;;;;;;;;5122492;28;20462;-81
2024/02/03 04:24:44;;;;;;;72.40;66.57;;;;;;;;;;5122809;28;20447;-81
2024/02/03 04:27:11;;;;;;;78.37;71.00;;;;;;;;;;5122217;28;20462;-81
2024/02/03 04:29:38;;;;;;;77.57;69.97;;;;;;;;;;5122096;28;20472;-81
2024/02/03 04:32:06;;;;;;;67.93;61.60;;;;;;;;;;5122368;28;20436;-81
2024/02/03 04:34:33;;;;;;;64.53;59.20;;;;;;;;;;5122067;28;20547;-81
2024/02/03 04:37:00;;;;;;;69.20;63.17;;;;;;;;;;5121026;28;20440;-82
2024/02/03 04:39:30;;;;;;;81.77;74.67;;;;;;;;;;5122513;28;20464;-80
2024/02/03 04:41:57;;;;;;;73.07;67.10;;;;;;;;;;5122397;28;20723;-80
2024/02/03 04:44:24;;;;;;;69.93;64.23;;;;;;;;;;5122511;28;20454;-81
2024/02/03 04:46:51;;;;;;;59.77;55.03;;;;;;;;;;5121982;28;20471;-81
2024/02/03 04:49:18;;;;;;;71.10;65.30;;;;;;;;;;5121449;28;20497;-81
2024/02/03 04:51:45;;;;;;;63.23;58.53;;;;;;;;;;5122402;28;20482;-81
2024/02/03 04:54:13;;;;;;;68.93;63.27;;;;;;;;;;5121744;28;20573;-81
2024/02/03 04:56:42;;;;;;;61.50;57.00;;;;;;;;;;5120997;28;20448;-81
2024/02/03 04:59:09;;;;;;;73.40;66.60;;;;;;;;;;5121723;28;20475;-80
2024/02/03 05:01:39;;;;;;;72.20;66.50;;;;;;;;;;5117464;28;20452;-81
2024/02/03 05:04:06;;;;;;;78.80;71.47;;;;;;;;;;5115343;28;20458;-81
2024/02/03 05:06:32;;;;;;;68.03;62.83;;;;;;;;;;5121784;28;20444;-81
2024/02/03 05:09:00;;;;;;;75.47;69.07;;;;;;;;;;5102451;28;20504;-80
2024/02/03 05:11:27;;;;;;;78.37;71.47;;;;;;;;;;5102015;28;20523;-81
2024/02/03 05:13:56;;;;;;;73.90;68.10;;;;;;;;;;5101267;28;20476;-81
2024/02/03 05:16:23;;;;;;;80.40;73.40;;;;;;;;;;5100348;28;20445;-81
2024/02/03 05:18:50;;;;;;;74.57;68.70;;;;;;;;;;5100150;28;20471;-79
2024/02/03 05:21:17;;;;;;;84.37;76.67;;;;;;;;;;5100211;28;20456;-80
2024/02/03 05:23:44;;;;;;;92.00;82.93;;;;;;;;;;5101122;28;20995;-80
2024/02/03 05:26:11;;;;;;;125.87;102.93;;;;;;;;;;5101066;28;20441;-80
2024/02/03 05:28:38;;;;;;;108.20;90.80;;;;;;;;;;5112064;28;20456;-81
2024/02/03 05:31:07;;;;;;;78.17;71.30;;;;;;;;;;5121679;28;20447;-80
2024/02/03 05:33:34;;;;;;;147.87;124.47;;;;;;;;;;5122032;28;20454;-80
2024/02/03 05:36:01;;;;;;;80.20;73.30;;;;;;;;;;5120257;28;20444;-79
2024/02/03 05:38:30;;;;;;;89.53;81.03;;;;;;;;;;5100816;28;20444;-80
2024/02/03 05:40:56;;;;;;;68.97;63.50;;;;;;;;;;5101754;28;20491;-79
2024/02/03 05:43:23;;;;;;;74.70;68.30;;;;;;;;;;5104574;28;20544;-81
2024/02/03 05:45:50;;;;;;;82.00;74.40;;;;;;;;;;5105184;28;20502;-80
2024/02/03 05:48:18;;;;;;;69.30;64.20;;;;;;;;;;5103970;28;20494;-80
2024/02/03 05:50:45;;;;;;;61.13;56.97;;;;;;;;;;5104596;28;20472;-81
2024/02/03 05:53:12;;;;;;;76.10;69.60;;;;;;;;;;5103716;28;20419;-80
2024/02/03 05:55:40;;;;;;;68.90;63.43;;;;;;;;;;5104751;28;20894;-81
2024/02/03 05:58:07;;;;;;;72.37;66.17;;;;;;;;;;5102966;28;20437;-82
2024/02/03 06:00:34;;;;;;;73.93;67.40;;;;;;;;;;5103976;28;20457;-81
2024/02/03 06:03:02;;;;;;;80.73;73.67;;;;;;;;;;5104892;28;20451;-82
2024/02/03 06:05:32;;;;;;;72.97;66.20;;;;;;;;;;5104331;28;20423;-80
2024/02/03 06:07:59;;;;;;;72.07;66.23;;;;;;;;;;5104343;28;20476;-81
2024/02/03 06:10:26;;;;;;;69.50;64.57;;;;;;;;;;5104647;28;21013;-81
2024/02/03 06:12:53;;;;;;;65.77;61.10;;;;;;;;;;5104730;28;20449;-81
2024/02/03 06:15:20;;;;;;;57.73;53.70;;;;;;;;;;5104000;28;20905;-80
2024/02/03 06:17:50;;;;;;;71.50;64.87;;;;;;;;;;5103744;28;20513;-80
2024/02/03 06:20:17;;;;;;;61.37;57.07;;;;;;;;;;5104267;28;20493;-81
2024/02/03 06:22:46;;;;;;;71.63;65.60;;;;;;;;;;5115899;28;20476;-81
2024/02/03 06:25:13;;;;;;;72.03;65.83;;;;;;;;;;5112949;28;20470;-80
2024/02/03 06:27:40;;;;;;;66.23;61.43;;;;;;;;;;5123369;28;20462;-81
2024/02/03 06:30:08;;;;;;;67.97;62.87;;;;;;;;;;5120466;28;20468;-81
2024/02/03 06:32:35;;;;;;;74.70;68.43;;;;;;;;;;5104448;28;20403;-80
2024/02/03 06:35:03;;;;;;;68.70;64.00;;;;;;;;;;5104407;28;20484;-80
2024/02/03 06:37:30;;;;;;;65.87;61.30;;;;;;;;;;5104196;28;20445;-81
2024/02/03 06:40:01;;;;;;;76.60;70.30;;;;;;;;;;5103987;28;20609;-80
2024/02/03 06:42:29;;;;;;;77.10;70.10;;;;;;;;;;5103828;28;20443;-82
2024/02/03 06:44:56;;;;;;;67.87;63.20;;;;;;;;;;5106536;28;20443;-81
2024/02/03 06:47:24;;;;;;;76.70;70.93;;;;;;;;;;5119763;28;20947;-81
2024/02/03 06:49:51;;;;;;;70.37;65.00;;;;;;;;;;5113019;28;20457;-79
2024/02/03 06:52:18;;;;;;;77.83;69.67;;;;;;;;;;5102958;28;20419;-81
2024/02/03 06:54:45;;;;;;;74.80;68.50;;;;;;;;;;5101813;28;20557;-80
2024/02/03 06:57:14;;;;;;;66.50;61.60;;;;;;;;;;5102669;28;20511;-80
2024/02/03 06:59:41;;;;;;;70.37;65.13;;;;;;;;;;5103335;28;20447;-82
2024/02/03 07:02:08;;;;;;;71.53;66.30;;;;;;;;;;5119520;28;20461;-82
2024/02/03 07:04:35;;;;;;;64.97;60.70;;;;;;;;;;5124175;28;20520;-80
2024/02/03 07:07:03;;;;;;;66.90;62.07;;;;;;;;;;5103787;28;20457;-81
2024/02/03 07:09:30;;;;;;;69.03;63.50;;;;;;;;;;5103182;28;20880;-80
2024/02/03 07:11:59;;;;;;;72.47;66.47;;;;;;;;;;5103498;28;20473;-81
2024/02/03 07:14:27;;;;;;;75.13;68.27;;;;;;;;;;5102645;28;20455;-82
2024/02/03 07:16:54;;;;;;;67.60;62.73;;;;;;;;;;5101953;28;20461;-81
2024/02/03 07:19:21;;;;;;;69.07;63.97;;;;;;;;;;5102625;28;20514;-82
2024/02/03 07:21:48;;;;;;;65.57;61.00;;;;;;;;;;5106823;28;21055;-82
2024/02/03 07:24:15;;;;;;;65.13;60.40;;;;;;;;;;5106053;28;20423;-83
2024/02/03 07:26:43;;;;;;;66.07;61.17;;;;;;;;;;5102868;28;20471;-82
2024/02/03 07:29:12;;;;;;;59.30;55.37;;;;;;;;;;5108117;28;20517;-83
2024/02/03 07:31:40;;;;;;;70.93;64.67;;;;;;;;;;5102929;28;20433;-84
2024/02/03 07:34:07;;;;;;;60.27;56.30;;;;;;;;;;5102669;28;20539;-82
2024/02/03 07:36:34;;;;;;;64.77;59.67;;;;;;;;;;5104810;28;20450;-83
2024/02/03 07:39:03;;;;;;;60.23;55.90;;;;;;;;;;5108085;28;21145;-84
2024/02/03 07:41:30;;;;;;;65.83;60.80;;;;;;;;;;5113822;28;20459;-80
2024/02/03 07:43:59;;;;;;;60.73;56.73;;;;;;;;;;5107317;28;20489;-83
2024/02/03 07:46:27;;;;;;;61.90;57.00;;;;;;;;;;5111419;28;20811;-80
2024/02/03 07:48:56;;;;;;;62.63;58.03;;;;;;;;;;5111071;28;20525;-76
2024/02/03 07:51:23;;;;;;;62.93;58.10;;;;;;;;;;5110937;28;20447;-77
2024/02/03 07:53:50;;;;;;;62.60;58.20;;;;;;;;;;5111457;28;20492;-76
2024/02/03 07:56:17;;;;;;;58.97;54.63;;;;;;;;;;5110564;28;20492;-77
2024/02/03 07:58:45;;;;;;;57.00;53.30;;;;;;;;;;5105518;28;20511;-76
2024/02/03 08:01:12;;;;;;;56.00;52.37;;;;;;;;;;5090371;28;20420;-76
2024/02/03 08:03:39;;;;;;;57.03;53.40;;;;;;;;;;5090416;28;20449;-75
2024/02/03 08:06:11;;;;;;;59.40;55.00;;;;;;;;;;5090381;28;20448;-76
2024/02/03 08:08:38;;;;;;;55.47;51.53;;;;;;;;;;5091068;28;20429;-76
2024/02/03 08:11:05;;;;;;;54.03;49.90;;;;;;;;;;5090803;28;20452;-75
2024/02/03 08:13:32;;;;;;;50.67;47.40;;;;;;;;;;5090814;28;20452;-76
2024/02/03 08:15:59;;;;;;;57.73;53.00;;;;;;;;;;5090305;28;21274;-77
2024/02/03 08:18:30;;;;;;;60.67;55.00;;;;;;;;;;5090405;28;20847;-77
2024/02/03 08:20:58;;;;;;;55.07;51.57;;;;;;;;;;5090520;28;20476;-76
2024/02/03 08:23:29;;;;;;;55.27;51.77;;;;;;;;;;5091083;28;20404;-77
2024/02/03 08:25:57;;;;;;;58.03;53.63;;;;;;;;;;5090490;28;20416;-77
2024/02/03 08:28:24;;;;;;;54.73;51.20;;;;;;;;;;5090208;28;20423;-77
2024/02/03 08:30:51;;;;;;;52.90;49.50;;;;;;;;;;5090061;28;20819;-77
2024/02/03 08:33:19;;;;;;;55.90;52.33;;;;;;;;;;5090133;28;20497;-78
2024/02/03 08:35:46;;;;;;;53.80;50.60;;;;;;;;;;5090471;28;20484;-76
2024/02/03 08:38:13;;;;;;;56.90;53.20;;;;;;;;;;5089760;28;20476;-76
2024/02/03 08:40:42;;;;;;;55.70;52.07;;;;;;;;;;5090319;28;20468;-75
2024/02/03 08:43:10;;;;;;;57.33;53.87;;;;;;;;;;5098074;28;20442;-78
2024/02/03 08:45:37;;;;;;;58.30;54.23;;;;;;;;;;5111405;28;20432;-78
2024/02/03 08:48:05;;;;;;;58.90;54.50;;;;;;;;;;5111001;28;20500;-78
2024/02/03 08:50:32;;;;;;;54.07;50.60;;;;;;;;;;5110976;28;20983;-78
2024/02/03 08:53:01;;;;;;;55.40;51.40;;;;;;;;;;5112221;28;20497;-77
2024/02/03 08:55:28;;;;;;;65.10;61.20;;;;;;;;;;5107369;28;20471;-72
2024/02/03 08:57:56;;;;;;;58.90;54.93;;;;;;;;;;5110069;28;20411;-74
2024/02/03 09:00:24;;;;;;;56.70;52.93;;;;;;;;;;5110636;28;20460;-73
2024/02/03 09:02:51;;;;;;;55.73;51.73;;;;;;;;;;5109930;28;20909;-72
2024/02/03 09:05:19;;;;;;;51.47;48.17;;;;;;;;;;5095843;28;20434;-73
2024/02/03 09:07:46;;;;;;;52.77;49.37;;;;;;;;;;5102425;28;20480;-77
2024/02/03 09:10:13;;;;;;;55.87;52.03;;;;;;;;;;5107807;28;20451;-74
2024/02/03 09:12:40;;;;;;;58.17;54.17;;;;;;;;;;5100800;28;20457;-74
2024/02/03 09:15:09;;;;;;;54.57;50.83;;;;;;;;;;5099942;28;20537;-74
2024/02/03 09:17:36;;;;;;;54.40;50.90;;;;;;;;;;5094061;28;20444;-78
2024/02/03 09:20:04;;;;;;;56.07;51.60;;;;;;;;;;5094286;28;20506;-78
2024/02/03 09:22:31;;;;;;;55.17;51.27;;;;;;;;;;5095006;28;20460;-77
2024/02/03 09:24:58;;;;;;;52.80;49.10;;;;;;;;;;5099918;28;20437;-78
2024/02/03 09:27:25;;;;;;;56.90;53.10;;;;;;;;;;5100745;28;20480;-79
2024/02/03 09:29:52;;;;;;;54.17;50.60;;;;;;;;;;5112852;28;20511;-77
2024/02/03 09:32:23;;;;;;;56.87;52.77;;;;;;;;;;5114069;28;20463;-76
2024/02/03 09:34:50;;;;;;;51.50;48.10;;;;;;;;;;5114458;28;20809;-76
2024/02/03 09:37:17;;;;;;;56.83;52.70;;;;;;;;;;5113785;28;20422;-77
2024/02/03 09:39:44;;;;;;;49.63;46.53;;;;;;;;;;5113965;28;20476;-76
2024/02/03 09:42:11;;;;;;;48.60;45.20;;;;;;;;;;5114175;28;20521;-76
2024/02/03 09:44:39;;;;;;;56.33;52.40;;;;;;;;;;5113659;28;20414;-75
2024/02/03 09:47:06;;;;;;;48.57;45.27;;;;;;;;;;5112940;28;20411;-76
2024/02/03 09:49:35;;;;;;;51.50;48.10;;;;;;;;;;5113407;28;20479;-76
2024/02/03 09:52:03;;;;;;;50.13;46.93;;;;;;;;;;5113363;28;20906;-75
2024/02/03 09:54:31;;;;;;;56.70;52.43;;;;;;;;;;5113850;28;20426;-76
2024/02/03 09:56:58;;;;;;;56.87;52.80;;;;;;;;;;5113048;28;20480;-75
2024/02/03 09:59:25;;;;;;;53.87;50.30;;;;;;;;;;5113484;28;20590;-75
2024/02/03 10:01:53;;;;;;;51.60;48.20;;;;;;;;;;5113590;28;20460;-76
2024/02/03 10:04:19;;;;;;;52.83;49.63;;;;;;;;;;5113235;28;20509;-75
2024/02/03 10:06:48;;;;;;;53.57;49.97;;;;;;;;;;5113071;28;20472;-76
2024/02/03 10:09:25;;;;;;;51.90;48.40;;;;;;;;;;5113186;28;20464;-75
2024/02/03 10:11:52;;;;;;;49.53;46.43;;;;;;;;;;5113307;28;20538;-76
2024/02/03 10:14:19;;;;;;;52.67;49.23;;;;;;;;;;5113733;28;20936;-74
2024/02/03 10:16:49;;;;;;;52.30;48.77;;;;;;;;;;5112167;28;20831;-74
2024/02/03 10:19:16;;;;;;;48.47;45.57;;;;;;;;;;5113006;28;20475;-75
2024/02/03 10:21:43;;;;;;;51.83;48.83;;;;;;;;;;5113471;28;20430;-75
2024/02/03 10:24:14;;;;;;;47.80;45.03;;;;;;;;;;5113149;28;20448;-75
2024/02/03 10:26:41;;;;;;;46.97;43.83;;;;;;;;;;5111704;28;20518;-75
2024/02/03 10:29:17;;;;;;;51.27;48.10;;;;;;;;;;5112259;28;20458;-76
2024/02/03 10:31:47;;;;;;;49.47;46.23;;;;;;;;;;5113093;28;20458;-74
2024/02/03 10:34:15;;;;;;;48.90;45.77;;;;;;;;;;5112873;28;20431;-75
2024/02/03 10:36:42;;;;;;;49.60;46.50;;;;;;;;;;5111355;28;20492;-76
2024/02/03 10:39:10;;;;;;;50.50;47.37;;;;;;;;;;5112765;28;20919;-77
2024/02/03 10:41:43;;;;;;;56.37;52.73;;;;;;;;;;5113454;28;20463;-77
2024/02/03 10:44:11;;;;;;;52.00;48.80;;;;;;;;;;5113292;28;20436;-77
2024/02/03 10:46:45;;;;;;;56.83;53.23;;;;;;;;;;5112510;28;20421;-76
2024/02/03 10:49:14;;;;;;;55.03;51.43;;;;;;;;;;5112711;28;20574;-80
2024/02/03 10:51:42;;;;;;;52.00;48.80;;;;;;;;;;5097728;28;20444;-80
2024/02/03 10:54:14;;;;;;;55.53;52.03;;;;;;;;;;5098252;28;20456;-80
2024/02/03 10:56:43;;;;;;;55.20;51.70;;;;;;;;;;5096365;28;20481;-82
2024/02/03 10:59:10;;;;;;;53.20;49.93;;;;;;;;;;5095862;28;20432;-83
2024/02/03 11:01:38;;;;;;;58.77;54.43;;;;;;;;;;5095650;28;20456;-81
2024/02/03 11:04:06;;;;;;;55.60;52.10;;;;;;;;;;5096640;28;20813;-78
2024/02/03 11:06:34;;;;;;;66.40;60.40;;;;;;;;;;5091523;28;20488;-77
2024/02/03 11:09:12;;;;;;;87.40;73.47;;;;;;;;;;5094264;28;20508;-77
2024/02/03 11:11:40;;;;;;;81.63;65.30;;;;;;;;;;5112697;28;20427;-78
2024/02/03 11:14:13;;;;;;;63.30;58.10;;;;;;;;;;5111388;28;20503;-77
2024/02/03 11:16:41;;;;;;;69.20;61.67;;;;;;;;;;5111472;28;20505;-77
2024/02/03 11:19:11;;;;;;;61.43;56.63;;;;;;;;;;5111309;28;20495;-75
2024/02/03 11:21:42;;;;;;;64.33;59.77;;;;;;;;;;5112291;28;20493;-75
2024/02/03 11:24:09;;;;;;;53.33;49.90;;;;;;;;;;5112101;28;20440;-76
2024/02/03 11:26:37;;;;;;;60.13;55.73;;;;;;;;;;5111884;28;20432;-75
2024/02/03 11:29:05;;;;;;;59.33;55.50;;;;;;;;;;5110951;28;20968;-75
2024/02/03 11:31:33;;;;;;;54.67;51.03;;;;;;;;;;5112121;28;20488;-76
2024/02/03 11:34:00;;;;;;;56.63;52.83;;;;;;;;;;5111758;28;20444;-75
2024/02/03 11:36:30;;;;;;;62.40;58.20;;;;;;;;;;5111356;28;20507;-75
2024/02/03 11:38:57;;;;;;;64.53;59.93;;;;;;;;;;5110762;28;20444;-76
2024/02/03 11:41:24;;;;;;;56.97;53.40;;;;;;;;;;5111527;28;20517;-76
2024/02/03 11:43:51;;;;;;;62.20;57.57;;;;;;;;;;5111598;28;20451;-75
2024/02/03 11:46:18;;;;;;;64.67;60.07;;;;;;;;;;5111247;28;20440;-75
2024/02/03 11:48:47;;;;;;;66.37;61.90;;;;;;;;;;5111617;28;20895;-76
2024/02/03 11:51:15;;;;;;;65.27;60.57;;;;;;;;;;5112051;28;20471;-76
2024/02/03 11:53:43;;;;;;;68.23;63.60;;;;;;;;;;5111525;28;20450;-78
2024/02/03 11:56:11;;;;;;;63.07;58.63;;;;;;;;;;5110715;28;20479;-78
2024/02/03 11:58:41;;;;;;;64.30;59.50;;;;;;;;;;5111565;28;20440;-76
2024/02/03 12:01:09;;;;;;;63.13;58.67;;;;;;;;;;5111645;28;20489;-75
2024/02/03 12:03:37;;;;;;;56.70;53.00;;;;;;;;;;5108408;28;20537;-77
2024/02/03 12:06:07;;;;;;;64.63;60.43;;;;;;;;;;5107329;28;20463;-74
2024/02/03 12:08:34;;;;;;;61.67;57.43;;;;;;;;;;5112105;28;20398;-77
2024/02/03 12:11:02;;;;;;;58.13;54.00;;;;;;;;;;5111828;28;20494;-77
2024/02/03 12:13:34;;;;;;;67.23;61.93;;;;;;;;;;5111607;28;20505;-77
2024/02/03 12:16:02;;;;;;;61.83;57.43;;;;;;;;;;5110939;28;20468;-78
2024/02/03 12:18:29;;;;;;;53.40;50.17;;;;;;;;;;5111417;28;20942;-79
2024/02/03 12:20:56;;;;;;;58.83;55.07;;;;;;;;;;5111087;28;20472;-78
2024/02/03 12:23:25;;;;;;;60.53;56.10;;;;;;;;;;5111505;28;20476;-77
2024/02/03 12:25:52;;;;;;;61.53;57.53;;;;;;;;;;5111613;28;20490;-77
2024/02/03 12:28:20;;;;;;;61.83;57.33;;;;;;;;;;5110329;28;20444;-76
2024/02/03 12:30:56;;;;;;;62.87;58.20;;;;;;;;;;5091306;28;20665;-77
2024/02/03 12:33:23;;;;;;;63.63;59.07;;;;;;;;;;5091333;28;20425;-77
2024/02/03 12:35:50;;;;;;;57.90;54.30;;;;;;;;;;5090712;28;20484;-77
2024/02/03 12:38:17;;;;;;;68.23;63.30;;;;;;;;;;5090228;28;20471;-77
2024/02/03 12:40:46;;;;;;;54.47;51.27;;;;;;;;;;5090892;28;20480;-78
2024/02/03 12:43:13;;;;;;;54.70;51.40;;;;;;;;;;5090665;28;20834;-78
2024/02/03 12:45:41;;;;;;;61.07;57.27;;;;;;;;;;5090763;28;20437;-77
2024/02/03 12:48:08;;;;;;;56.87;53.50;;;;;;;;;;5090373;28;20453;-78
2024/02/03 12:50:37;;;;;;;60.33;56.50;;;;;;;;;;5113228;28;20471;-77
2024/02/03 12:53:04;;;;;;;62.13;58.00;;;;;;;;;;5095012;28;20869;-76
2024/02/03 12:55:31;;;;;;;62.63;57.97;;;;;;;;;;5095376;28;20786;-76
2024/02/03 12:58:00;;;;;;;65.87;61.50;;;;;;;;;;5094395;28;20497;-78
2024/02/03 13:00:27;;;;;;;64.03;59.73;;;;;;;;;;5095040;28;20474;-76
2024/02/03 13:02:54;;;;;;;62.23;57.87;;;;;;;;;;5098124;28;20498;-84
2024/02/03 13:05:22;;;;;;;57.23;53.43;;;;;;;;;;5098770;28;20924;-80
2024/02/03 13:07:50;;;;;;;55.43;51.03;;;;;;;;;;5098345;28;20419;-80
2024/02/03 13:10:17;;;;;;;64.73;59.93;;;;;;;;;;5098838;28;20468;-78
2024/02/03 13:12:44;;;;;;;62.00;57.73;;;;;;;;;;5097565;28;20463;-79
2024/02/03 13:15:13;;;;;;;56.53;52.97;;;;;;;;;;5096777;28;21006;-78
2024/02/03 13:17:42;;;;;;;56.10;52.33;;;;;;;;;;5095790;28;20492;-79
2024/02/03 13:20:09;;;;;;;59.70;55.70;;;;;;;;;;5095745;28;20495;-80
2024/02/03 13:22:36;;;;;;;60.07;56.47;;;;;;;;;;5095266;28;20932;-79
2024/02/03 13:25:04;;;;;;;59.20;55.07;;;;;;;;;;5095722;28;20482;-78
2024/02/03 13:27:32;;;;;;;64.07;59.67;;;;;;;;;;5094707;28;20449;-79
2024/02/03 13:29:59;;;;;;;59.93;56.07;;;;;;;;;;5094883;28;20468;-78
2024/02/03 13:32:27;;;;;;;55.77;52.53;;;;;;;;;;5095011;28;20506;-78
2024/02/03 13:34:54;;;;;;;57.37;53.90;;;;;;;;;;5095294;28;20963;-78
2024/02/03 13:37:22;;;;;;;57.20;53.67;;;;;;;;;;5096106;28;20459;-79
2024/02/03 13:39:52;;;;;;;55.47;52.00;;;;;;;;;;5097270;28;20530;-80
2024/02/03 13:42:19;;;;;;;60.97;56.97;;;;;;;;;;5098886;28;20448;-80
2024/02/03 13:44:46;;;;;;;61.77;57.87;;;;;;;;;;5098974;28;20941;-79
2024/02/03 13:47:13;;;;;;;59.40;55.70;;;;;;;;;;5100966;28;20488;-79
2024/02/03 13:49:43;;;;;;;58.67;55.03;;;;;;;;;;5109980;28;20475;-78
2024/02/03 13:52:12;;;;;;;56.50;53.47;;;;;;;;;;5118421;28;20455;-79
2024/02/03 13:54:39;;;;;;;55.67;52.60;;;;;;;;;;5120695;28;20467;-79
2024/02/03 13:57:08;;;;;;;59.43;56.00;;;;;;;;;;5113657;28;20480;-80
2024/02/03 13:59:35;;;;;;;56.73;53.93;;;;;;;;;;5115120;28;20482;-79
2024/02/03 14:02:02;;;;;;;58.60;55.50;;;;;;;;;;5115818;28;20451;-79
2024/02/03 14:04:29;;;;;;;58.90;55.77;;;;;;;;;;5117243;28;20448;-79
2024/02/03 14:06:59;;;;;;;60.30;56.90;;;;;;;;;;5116919;28;20440;-81
2024/02/03 14:09:26;;;;;;;53.50;50.80;;;;;;;;;;5117558;28;20471;-81
2024/02/03 14:11:53;;;;;;;55.63;52.60;;;;;;;;;;5117083;28;20458;-79
2024/02/03 14:14:21;;;;;;;53.47;50.90;;;;;;;;;;5114941;28;20820;-78
2024/02/03 14:16:48;;;;;;;50.73;48.03;;;;;;;;;;5094941;28;20524;-80
2024/02/03 14:19:18;;;;;;;47.53;45.13;;;;;;;;;;5094912;28;20472;-79
2024/02/03 14:21:45;;;;;;;48.80;46.20;;;;;;;;;;5094780;28;20429;-79